Zim Mumbai — P3BA7 — position and weather

sailwx.info

Track history (hours):
 
Tides and Currents Weather Stations Pressure Air Temp Water Temp Dewpoint Dewpoint Depression Visibility Wind Speed Wind Dir Waves Ship Positions

Zim Mumbai

Last reported at 2015-Aug-03 04:33 UTC. Time now 2015-Aug-03 04:39 UTC.
Position N 39°24' W 073°25'.

Length 195.7 m; beam 32.3 m; draft 11.5 m.

Type: Ship (hazmat cat B). MMSI: 212160000.

Date/timePositionNaut miles runAvg speedWind from/ knotsBaromVisibWave heightAir tempDewpointWater temp
2015-Aug-03 04:33N 39°24' W 073°25'1313.0
2015-Aug-03 03:33N 39°14' W 073°37'1212.2
2015-Aug-03 02:33N 39°05' W 073°48'1414.2
2015-Aug-03 01:33N 38°55' W 074°01'1414.1
2015-Aug-03 00:33N 38°46' W 074°14'1414.0
2015-Aug-02 23:33N 38°45' W 074°32'1413.8
2015-Aug-02 22:33N 38°46' W 074°49'1312.6
2015-Aug-02 21:33N 38°50' W 075°04'1716.5
2015-Aug-02 20:33N 39°05' W 075°12'1818.4
2015-Aug-02 19:33N 39°20' W 075°26'1414.3
2015-Aug-02 18:33N 39°34' W 075°33'1211.6
2015-Aug-02 17:33N 39°45' W 075°30'1010.1
2015-Aug-02 16:33N 39°51' W 075°19'7 7.0
2015-Aug-02 15:33N 39°53' W 075°10'2 1.9
2015-Aug-02 14:32N 39°54' W 075°08'0 0.0
2015-Aug-02 13:33N 39°54' W 075°08'0 0.0
2015-Aug-02 12:32N 39°54' W 075°08'0 0.0
2015-Aug-02 11:32N 39°54' W 075°08'0 0.0
2015-Aug-02 10:31N 39°54' W 075°08'0 0.0
2015-Aug-02 09:31N 39°54' W 075°08'0 0.0
2015-Aug-02 08:31N 39°54' W 075°08'0 0.0
2015-Aug-02 07:31N 39°54' W 075°08'0 0.0
2015-Aug-02 06:31N 39°54' W 075°08'0 0.0
2015-Aug-02 05:26N 39°54' W 075°08'0 0.0
2015-Aug-02 04:33N 39°54' W 075°08'0 0.0
2015-Aug-02 03:32N 39°54' W 075°08'0 0.0
2015-Aug-02 02:31N 39°54' W 075°08'0 0.0
2015-Aug-02 01:32N 39°54' W 075°08'0 0.0
2015-Aug-02 00:33N 39°54' W 075°08'0 0.0
2015-Aug-01 23:27N 39°54' W 075°08'1 1.2
2015-Aug-01 22:34N 39°53' W 075°09'8 8.2
2015-Aug-01 21:33N 39°51' W 075°19'10 9.7
2015-Aug-01 20:34N 39°45' W 075°29'1212.2
2015-Aug-01 19:34N 39°33' W 075°32'1514.6
2015-Aug-01 18:34N 39°20' W 075°25'1716.7
2015-Aug-01 17:33N 39°06' W 075°12'1515.3
2015-Aug-01 16:33N 38°52' W 075°06'0 0.2
2015-Aug-01 15:32N 38°52' W 075°06'0 0.1
2015-Aug-01 14:32N 38°52' W 075°06'0 0.0
2015-Aug-01 13:31N 38°52' W 075°06'3 2.8
2015-Aug-01 12:33N 38°50' W 075°04'7 7.4
2015-Aug-01 11:33N 38°45' W 074°57'8 7.9
2015-Aug-01 10:34N 38°39' W 074°51'9 8.7
2015-Aug-01 09:33N 38°32' W 074°44'9 9.1
2015-Aug-01 08:33N 38°24' W 074°38'1110.5
2015-Aug-01 07:34N 38°14' W 074°33'8 7.5
2015-Aug-01 06:33N 38°07' W 074°30'10 9.9
2015-Aug-01 05:33N 37°58' W 074°27'1010.3
2015-Aug-01 04:33N 37°47' W 074°26'1110.5
2015-Aug-01 03:33N 37°37' W 074°28'  
2015-Jul-29 09:12N 26°31' W 078°46'0 0.0
2015-Jul-29 00:04N 26°32' W 078°46'  
2015-Jul-25 20:11N 29°21' W 094°43'812.4
2015-Jul-25 19:31N 29°26' W 094°50'1313.1
2015-Jul-25 18:33N 29°37' W 094°57'3 2.6
2015-Jul-25 17:32N 29°37' W 095°00'0 0.0
2015-Jul-25 16:32N 29°37' W 095°00'0 0.0
2015-Jul-25 15:27N 29°37' W 095°00'0 0.0
2015-Jul-25 14:32N 29°37' W 095°00'0 0.0
2015-Jul-25 13:27N 29°37' W 095°00'0 0.0
2015-Jul-25 12:31N 29°37' W 095°00'0 0.0
2015-Jul-25 11:28N 29°37' W 095°00'0 0.0
2015-Jul-25 10:30N 29°37' W 095°00'0 0.0
2015-Jul-25 09:26N 29°37' W 095°00'0 0.0
2015-Jul-25 08:31N 29°37' W 095°00'0 0.0
2015-Jul-25 07:31N 29°37' W 095°00'0 0.0
2015-Jul-25 06:30N 29°37' W 095°00'0 0.0
2015-Jul-25 05:28N 29°37' W 095°00'0 0.0
2015-Jul-25 04:30N 29°37' W 095°00'0 0.0
2015-Jul-25 03:29N 29°37' W 095°00'0 0.0
2015-Jul-25 02:30N 29°37' W 095°00'0 0.0
2015-Jul-25 01:27N 29°37' W 095°00'0 0.0
2015-Jul-25 00:33N 29°37' W 095°00'0 0.0
2015-Jul-24 23:30N 29°37' W 095°00'0 0.0
2015-Jul-24 22:31N 29°37' W 095°00'0 0.0
2015-Jul-24 21:29N 29°37' W 095°00'0 0.0
2015-Jul-24 20:30N 29°37' W 095°00'1 1.3
2015-Jul-24 19:33N 29°37' W 094°59'1211.6
2015-Jul-24 18:33N 29°28' W 094°51'  
Track history (hours):
 
Tides and Currents Weather Stations Pressure Air Temp Water Temp Dewpoint Dewpoint Depression Visibility Wind Speed Wind Dir Waves Ship Positions

Zim Mumbai

Last reported at 2015-Aug-03 04:33 UTC. Time now 2015-Aug-03 04:39 UTC.
Position N 39°24' W 073°25'.

Length 195.7 m; beam 32.3 m; draft 11.5 m.

Type: Ship (hazmat cat B). MMSI: 212160000.

Date/timePositionNaut miles runAvg speedWind from/ knotsBaromVisibWave heightAir tempDewpointWater temp
2015-Aug-03 04:33N 39°24' W 073°25'1313.0
2015-Aug-03 03:33N 39°14' W 073°37'1212.2
2015-Aug-03 02:33N 39°05' W 073°48'1414.2
2015-Aug-03 01:33N 38°55' W 074°01'1414.1
2015-Aug-03 00:33N 38°46' W 074°14'1414.0
2015-Aug-02 23:33N 38°45' W 074°32'1413.8
2015-Aug-02 22:33N 38°46' W 074°49'1312.6
2015-Aug-02 21:33N 38°50' W 075°04'1716.5
2015-Aug-02 20:33N 39°05' W 075°12'1818.4
2015-Aug-02 19:33N 39°20' W 075°26'1414.3
2015-Aug-02 18:33N 39°34' W 075°33'1211.6
2015-Aug-02 17:33N 39°45' W 075°30'1010.1
2015-Aug-02 16:33N 39°51' W 075°19'7 7.0
2015-Aug-02 15:33N 39°53' W 075°10'2 1.9
2015-Aug-02 14:32N 39°54' W 075°08'0 0.0
2015-Aug-02 13:33N 39°54' W 075°08'0 0.0
2015-Aug-02 12:32N 39°54' W 075°08'0 0.0
2015-Aug-02 11:32N 39°54' W 075°08'0 0.0
2015-Aug-02 10:31N 39°54' W 075°08'0 0.0
2015-Aug-02 09:31N 39°54' W 075°08'0 0.0
2015-Aug-02 08:31N 39°54' W 075°08'0 0.0
2015-Aug-02 07:31N 39°54' W 075°08'0 0.0
2015-Aug-02 06:31N 39°54' W 075°08'0 0.0
2015-Aug-02 05:26N 39°54' W 075°08'0 0.0
2015-Aug-02 04:33N 39°54' W 075°08'0 0.0
2015-Aug-02 03:32N 39°54' W 075°08'0 0.0
2015-Aug-02 02:31N 39°54' W 075°08'0 0.0
2015-Aug-02 01:32N 39°54' W 075°08'0 0.0
2015-Aug-02 00:33N 39°54' W 075°08'0 0.0
2015-Aug-01 23:27N 39°54' W 075°08'1 1.2
2015-Aug-01 22:34N 39°53' W 075°09'8 8.2
2015-Aug-01 21:33N 39°51' W 075°19'10 9.7
2015-Aug-01 20:34N 39°45' W 075°29'1212.2
2015-Aug-01 19:34N 39°33' W 075°32'1514.6
2015-Aug-01 18:34N 39°20' W 075°25'1716.7
2015-Aug-01 17:33N 39°06' W 075°12'1515.3
2015-Aug-01 16:33N 38°52' W 075°06'0 0.2
2015-Aug-01 15:32N 38°52' W 075°06'0 0.1
2015-Aug-01 14:32N 38°52' W 075°06'0 0.0
2015-Aug-01 13:31N 38°52' W 075°06'3 2.8
2015-Aug-01 12:33N 38°50' W 075°04'7 7.4
2015-Aug-01 11:33N 38°45' W 074°57'8 7.9
2015-Aug-01 10:34N 38°39' W 074°51'9 8.7
2015-Aug-01 09:33N 38°32' W 074°44'9 9.1
2015-Aug-01 08:33N 38°24' W 074°38'1110.5
2015-Aug-01 07:34N 38°14' W 074°33'8 7.5
2015-Aug-01 06:33N 38°07' W 074°30'10 9.9
2015-Aug-01 05:33N 37°58' W 074°27'1010.3
2015-Aug-01 04:33N 37°47' W 074°26'1110.5
2015-Aug-01 03:33N 37°37' W 074°28'  
2015-Jul-29 09:12N 26°31' W 078°46'0 0.0
2015-Jul-29 00:04N 26°32' W 078°46'  
2015-Jul-25 20:11N 29°21' W 094°43'812.4
2015-Jul-25 19:31N 29°26' W 094°50'1313.1
2015-Jul-25 18:33N 29°37' W 094°57'3 2.6
2015-Jul-25 17:32N 29°37' W 095°00'0 0.0
2015-Jul-25 16:32N 29°37' W 095°00'0 0.0
2015-Jul-25 15:27N 29°37' W 095°00'0 0.0
2015-Jul-25 14:32N 29°37' W 095°00'0 0.0
2015-Jul-25 13:27N 29°37' W 095°00'0 0.0
2015-Jul-25 12:31N 29°37' W 095°00'0 0.0
2015-Jul-25 11:28N 29°37' W 095°00'0 0.0
2015-Jul-25 10:30N 29°37' W 095°00'0 0.0
2015-Jul-25 09:26N 29°37' W 095°00'0 0.0
2015-Jul-25 08:31N 29°37' W 095°00'0 0.0
2015-Jul-25 07:31N 29°37' W 095°00'0 0.0
2015-Jul-25 06:30N 29°37' W 095°00'0 0.0
2015-Jul-25 05:28N 29°37' W 095°00'0 0.0
2015-Jul-25 04:30N 29°37' W 095°00'0 0.0
2015-Jul-25 03:29N 29°37' W 095°00'0 0.0
2015-Jul-25 02:30N 29°37' W 095°00'0 0.0
2015-Jul-25 01:27N 29°37' W 095°00'0 0.0
2015-Jul-25 00:33N 29°37' W 095°00'0 0.0
2015-Jul-24 23:30N 29°37' W 095°00'0 0.0
2015-Jul-24 22:31N 29°37' W 095°00'0 0.0
2015-Jul-24 21:29N 29°37' W 095°00'0 0.0
2015-Jul-24 20:30N 29°37' W 095°00'1 1.3
2015-Jul-24 19:33N 29°37' W 094°59'1211.6
2015-Jul-24 18:33N 29°28' W 094°51'  

Dump ship's entire track history